Time;durP1;ratioP1;P1;durP2;ratioP2;P2;SDS_P1;SDS_P2;PMS_P1;PMS_P2;Temp;Humidity;BMP_temperature;BMP_pressure;BME280_temperature;BME280_humidity;BME280_pressure;Samples;Min_cycle;Max_cycle;Signal;HPM_P1;HPM_P2
2022/05/20 00:00:25;;;;;;;;;1.75;1.75;;;;;21.40;46.72;101642.22;5089133;27;45358;-47
2022/05/20 00:02:51;;;;;;;;;2.00;2.00;;;;;21.48;47.37;101657.50;5088918;27;46367;-43
2022/05/20 00:05:16;;;;;;;;;2.50;2.50;;;;;21.48;47.19;101650.22;5087307;27;45415;-46
2022/05/20 00:07:42;;;;;;;;;1.50;1.50;;;;;21.50;47.05;101645.44;5089290;27;45361;-48
2022/05/20 00:10:12;;;;;;;;;2.75;1.75;;;;;21.51;46.37;101644.41;5088822;27;45389;-44
2022/05/20 00:12:38;;;;;;;;;2.25;2.25;;;;;21.51;46.44;101639.00;5087618;27;48628;-45
2022/05/20 00:15:09;;;;;;;;;2.20;1.80;;;;;21.54;46.21;101638.63;5089266;27;45230;-45
2022/05/20 00:17:35;;;;;;;;;4.80;2.00;;;;;21.53;46.89;101636.94;5090208;27;45502;-44
2022/05/20 00:20:02;;;;;;;;;5.00;2.50;;;;;21.52;46.47;101623.59;5089489;27;45336;-43
2022/05/20 00:22:27;;;;;;;;;2.00;1.75;;;;;21.53;46.66;101618.00;5088886;27;47082;-45
2022/05/20 00:27:37;;;;;;;;;3.00;1.40;;;;;21.52;46.17;101616.31;5089664;27;45302;-46
2022/05/20 00:30:03;;;;;;;;;4.25;1.00;;;;;21.44;45.96;101602.91;5088688;27;45385;-44
2022/05/20 00:32:28;;;;;;;;;4.00;2.75;;;;;21.55;45.44;101624.03;5086259;27;45271;-45
2022/05/20 00:34:54;;;;;;;;;1.75;1.75;;;;;21.56;45.42;101619.44;5088986;27;45229;-44
2022/05/20 00:37:19;;;;;;;;;4.25;1.00;;;;;21.56;45.33;101623.00;5089093;27;45360;-43
2022/05/20 00:39:45;;;;;;;;;1.75;1.75;;;;;21.56;45.19;101624.88;5087265;27;45467;-44
2022/05/20 00:42:16;;;;;;;;;5.50;3.00;;;;;21.56;45.14;101620.28;5086689;27;46056;-45
2022/05/20 00:44:42;;;;;;;;;1.00;1.00;;;;;21.60;45.61;101621.56;5088531;27;45422;-46
2022/05/20 00:47:09;;;;;;;;;2.25;1.25;;;;;21.57;45.16;101618.41;5087986;27;45376;-44
2022/05/20 00:49:36;;;;;;;;;1.00;1.00;;;;;21.53;45.29;101617.13;5086723;27;45529;-45
2022/05/20 00:52:03;;;;;;;;;0.25;0.00;;;;;21.50;45.17;101621.09;5088476;27;46514;-44
2022/05/20 00:54:38;;;;;;;;;1.00;1.00;;;;;21.48;44.74;101612.31;5087718;27;45526;-44
2022/05/20 00:57:13;;;;;;;;;0.80;0.80;;;;;21.47;44.60;101626.06;5088860;27;45389;-44
2022/05/20 00:59:43;;;;;;;;;2.25;1.50;;;;;21.38;45.16;101598.31;5088814;27;45450;-46
2022/05/20 01:02:14;;;;;;;;;4.75;1.75;;;;;21.39;44.78;101603.50;5086488;27;48165;-45
2022/05/20 01:04:41;;;;;;;;;1.60;1.00;;;;;21.36;44.88;101608.47;5092642;27;45515;-45
2022/05/20 01:07:08;;;;;;;;;4.75;2.50;;;;;21.34;45.10;101619.50;5097804;27;45252;-44
2022/05/20 01:09:37;;;;;;;;;2.00;2.00;;;;;21.35;45.06;101610.34;5097795;27;45420;-45
2022/05/20 01:12:03;;;;;;;;;2.00;1.00;;;;;21.34;45.20;101595.16;5095073;27;46356;-45
2022/05/20 01:14:29;;;;;;;;;2.00;2.00;;;;;21.34;45.52;101592.44;5097652;27;45516;-46
2022/05/20 01:16:55;;;;;;;;;2.50;1.00;;;;;21.37;45.16;101600.19;5097804;27;45569;-45
2022/05/20 01:19:31;;;;;;;;;3.00;1.25;;;;;21.36;45.12;101576.00;5094927;27;45491;-46
2022/05/20 01:21:57;;;;;;;;;1.25;1.25;;;;;21.37;45.20;101572.28;5097451;27;45207;-45
2022/05/20 01:24:22;;;;;;;;;3.00;1.00;;;;;21.34;45.02;101565.38;5097232;27;45396;-48
2022/05/20 01:26:48;;;;;;;;;4.75;0.00;;;;;21.31;45.01;101564.91;5097471;27;45384;-44
2022/05/20 01:29:13;;;;;;;;;1.00;1.00;;;;;21.27;44.89;101577.16;5097678;27;45451;-45
2022/05/20 01:31:38;;;;;;;;;1.00;1.00;;;;;21.16;44.77;101555.03;5097063;27;45450;-46
2022/05/20 01:34:04;;;;;;;;;0.25;0.25;;;;;21.21;45.13;101557.13;5097279;27;45257;-44
2022/05/20 01:36:29;;;;;;;;;2.75;1.00;;;;;21.19;44.57;101551.06;5097368;27;45349;-47
2022/05/20 01:38:57;;;;;;;;;2.00;1.00;;;;;21.14;45.12;101557.06;5097218;27;45499;-45
2022/05/20 01:41:31;;;;;;;;;1.50;1.00;;;;;21.11;44.90;101549.38;5097124;27;45940;-45
2022/05/20 01:44:05;;;;;;;;;2.00;2.00;;;;;21.05;45.05;101547.44;5097167;27;45383;-45
2022/05/20 01:46:41;;;;;;;;;1.00;1.00;;;;;21.04;45.34;101540.38;5097376;27;45508;-45
2022/05/20 01:49:11;;;;;;;;;1.00;1.00;;;;;20.99;45.02;101532.00;5095547;27;45443;-47
2022/05/20 01:51:46;;;;;;;;;1.25;1.25;;;;;20.89;45.26;101534.19;5096680;27;45273;-44
2022/05/20 01:54:21;;;;;;;;;2.00;0.00;;;;;20.89;45.58;101536.91;5096913;27;45450;-45
2022/05/20 01:56:54;;;;;;;;;2.50;2.25;;;;;20.90;45.93;101541.31;5095280;27;45208;-44
2022/05/20 01:59:32;;;;;;;;;1.00;1.00;;;;;20.85;45.73;101532.91;5094478;27;45300;-46
2022/05/20 02:02:01;;;;;;;;;1.25;1.25;;;;;20.82;46.27;101528.75;5096799;27;47311;-44
2022/05/20 02:04:43;;;;;;;;;1.00;1.00;;;;;20.81;45.75;101526.22;5101439;27;45437;-46
2022/05/20 02:07:16;;;;;;;;;3.50;1.50;;;;;20.80;46.01;101532.66;5093235;27;45472;-46
2022/05/20 02:09:53;;;;;;;;;3.00;2.00;;;;;20.79;46.52;101522.88;5091764;27;45410;-46
2022/05/20 02:12:22;;;;;;;;;1.00;1.00;;;;;20.80;46.54;101525.38;5096237;27;46183;-45
2022/05/20 02:15:10;;;;;;;;;1.00;1.00;;;;;20.76;46.45;101509.75;5096552;27;45905;-44
2022/05/20 02:17:38;;;;;;;;;3.00;3.00;;;;;20.75;46.41;101508.09;5095161;27;45487;-45
2022/05/20 02:20:09;;;;;;;;;5.00;2.00;;;;;20.76;46.68;101513.28;5096261;27;45443;-45
2022/05/20 02:22:39;;;;;;;;;3.25;2.00;;;;;20.77;46.38;101497.91;5095265;27;46638;-45
2022/05/20 02:25:09;;;;;;;;;2.00;2.00;;;;;20.78;46.46;101515.81;5095708;27;45435;-44
2022/05/20 02:27:39;;;;;;;;;1.00;1.00;;;;;20.70;46.74;101486.22;5096020;27;45511;-43
2022/05/20 02:30:08;;;;;;;;;1.00;1.00;;;;;20.74;46.92;101495.59;5092013;27;45250;-46
2022/05/20 02:32:47;;;;;;;;;2.50;2.50;;;;;20.61;46.65;101494.47;5095725;27;46518;-45
2022/05/20 02:35:12;;;;;;;;;4.00;3.00;;;;;20.71;47.16;101498.69;5093544;27;45281;-44
2022/05/20 02:37:39;;;;;;;;;3.75;1.00;;;;;20.81;47.15;101496.47;5095795;27;45229;-47
2022/05/20 02:40:08;;;;;;;;;3.00;1.25;;;;;20.82;47.35;101492.75;5095741;27;45324;-46
2022/05/20 02:42:33;;;;;;;;;5.50;2.00;;;;;20.84;46.99;101493.38;5094839;27;47127;-44
2022/05/20 02:45:00;;;;;;;;;3.00;2.00;;;;;20.87;47.06;101490.28;5095412;27;45326;-46
2022/05/20 02:47:33;;;;;;;;;2.50;2.25;;;;;20.82;47.47;101487.34;5095633;27;45428;-45
2022/05/20 02:50:05;;;;;;;;;3.00;2.00;;;;;20.89;47.45;101486.34;5095517;27;45566;-44
2022/05/20 02:52:30;;;;;;;;;5.50;2.00;;;;;20.91;47.07;101483.47;5077589;27;46126;-46
2022/05/20 02:54:56;;;;;;;;;2.75;2.25;;;;;20.88;47.14;101486.56;5095259;27;45447;-45
2022/05/20 02:57:21;;;;;;;;;1.00;1.00;;;;;20.84;47.55;101486.09;5095265;27;45459;-46
2022/05/20 03:05:16;;;;;;;;;1.00;1.00;;;;;20.86;47.80;101488.63;5089732;27;45344;-46
2022/05/20 03:07:41;;;;;;;;;1.00;1.00;;;;;20.79;47.46;101483.16;5106326;27;45534;-46
2022/05/20 03:10:07;;;;;;;;;2.75;2.75;;;;;20.78;47.79;101494.19;5110209;27;45367;-44
2022/05/20 03:12:35;;;;;;;;;2.00;2.00;;;;;20.78;48.14;101495.00;5110225;27;45449;-44
2022/05/20 03:15:02;;;;;;;;;2.00;2.00;;;;;20.73;47.84;101478.56;5105889;27;45243;-45
2022/05/20 03:17:27;;;;;;;;;1.00;1.00;;;;;20.75;47.73;101483.75;5108591;27;45360;-44
2022/05/20 03:19:53;;;;;;;;;4.50;3.00;;;;;20.71;48.32;101472.47;5110753;27;45411;-45
2022/05/20 03:22:18;;;;;;;;;4.50;2.00;;;;;20.78;47.92;101495.00;5108446;27;46883;-43
2022/05/20 03:24:43;;;;;;;;;3.00;2.00;;;;;20.71;48.12;101477.91;5110104;27;45350;-45
2022/05/20 03:27:09;;;;;;;;;3.25;3.00;;;;;20.74;48.15;101491.03;5108606;27;45272;-44
2022/05/20 03:29:34;;;;;;;;;2.00;2.00;;;;;20.74;48.34;101484.78;5108775;27;45285;-44
2022/05/20 03:32:00;;;;;;;;;3.75;1.00;;;;;20.74;48.34;101492.91;5110238;27;46182;-45
2022/05/20 03:34:26;;;;;;;;;4.00;2.25;;;;;20.71;48.72;101483.31;5107829;27;45569;-45
2022/05/20 03:36:51;;;;;;;;;4.25;3.00;;;;;20.67;48.40;101482.84;5109882;27;45458;-44
2022/05/20 03:39:20;;;;;;;;;1.00;1.00;;;;;20.64;48.44;101475.13;5108418;27;45474;-44
2022/05/20 03:41:47;;;;;;;;;2.00;2.00;;;;;20.61;48.65;101480.09;5109492;27;45395;-45
2022/05/20 03:44:14;;;;;;;;;2.25;2.25;;;;;20.62;48.88;101474.50;5109900;27;45292;-44
2022/05/20 03:46:41;;;;;;;;;2.50;1.75;;;;;20.58;48.92;101473.22;5107000;27;45312;-45
2022/05/20 03:49:08;;;;;;;;;3.25;1.50;;;;;20.57;49.05;101474.25;5109680;27;45544;-44
2022/05/20 03:51:34;;;;;;;;;2.75;2.75;;;;;20.53;48.93;101461.31;5109780;27;47159;-45
2022/05/20 03:53:59;;;;;;;;;3.00;1.75;;;;;20.55;48.85;101460.06;5108061;27;45336;-47
2022/05/20 03:56:25;;;;;;;;;1.25;1.25;;;;;20.57;48.64;101460.72;5109569;27;45257;-45
2022/05/20 03:58:50;;;;;;;;;6.00;2.00;;;;;20.54;49.01;101457.56;5109671;27;45427;-43
2022/05/20 04:04:00;;;;;;;;;1.50;1.25;;;;;20.47;49.06;101448.53;5107618;27;45440;-46
2022/05/20 04:06:26;;;;;;;;;5.25;2.50;;;;;20.43;48.85;101451.63;5109104;27;45273;-46
2022/05/20 04:08:52;;;;;;;;;3.25;2.25;;;;;20.38;48.92;101448.66;5109816;27;45343;-45
2022/05/20 04:11:17;;;;;;;;;2.00;2.00;;;;;20.36;49.42;101455.31;5107230;27;46176;-43
2022/05/20 04:13:44;;;;;;;;;3.50;1.00;;;;;20.35;49.52;101459.88;5109406;27;45356;-43
2022/05/20 04:16:12;;;;;;;;;2.00;2.00;;;;;20.31;49.76;101444.22;5109049;27;45230;-46
2022/05/20 04:18:38;;;;;;;;;3.00;2.50;;;;;20.32;49.48;101443.22;5107598;27;45491;-48
2022/05/20 04:21:04;;;;;;;;;3.75;2.00;;;;;20.31;49.59;101446.94;5108455;27;46114;-45
2022/05/20 04:23:30;;;;;;;;;3.00;3.00;;;;;20.28;49.39;101442.78;5108912;27;45449;-44
2022/05/20 04:25:56;;;;;;;;;3.00;2.00;;;;;20.31;49.85;101449.63;5107631;27;45315;-44
2022/05/20 04:28:21;;;;;;;;;2.75;2.75;;;;;20.28;49.87;101456.28;5109782;27;45378;-46
2022/05/20 04:30:47;;;;;;;;;4.00;3.00;;;;;20.31;49.46;101471.25;5108153;27;46283;-45
2022/05/20 04:33:13;;;;;;;;;2.75;2.25;;;;;20.35;49.64;101461.72;5110241;27;45354;-45
2022/05/20 04:35:38;;;;;;;;;2.50;2.00;;;;;20.40;49.85;101462.00;5105899;27;45447;-45
2022/05/20 04:38:04;;;;;;;;;2.00;2.00;;;;;20.44;50.00;101468.69;5109247;27;45414;-45
2022/05/20 04:40:29;;;;;;;;;5.00;2.50;;;;;20.50;49.95;101469.81;5108707;27;47108;-45
2022/05/20 04:48:23;;;;;;;;;2.00;2.00;;;;;20.65;49.17;101462.47;5105542;27;45435;-46
2022/05/20 04:50:49;;;;;;;;;4.00;3.00;;;;;20.71;49.48;101468.94;5107901;27;46175;-46
2022/05/20 04:54:49;;;;;;;;;5.00;2.00;;;;;20.72;49.42;101465.22;5109129;27;45365;-45
2022/05/20 04:56:00;;;;;;;;;3.75;3.75;;;;;20.80;49.33;101484.00;5106800;27;45381;-45
2022/05/20 04:58:25;;;;;;;;;3.25;3.00;;;;;20.88;49.79;101489.25;5108522;27;45338;-44
2022/05/20 05:00:50;;;;;;;;;4.25;4.00;;;;;20.91;49.46;101487.00;5108204;27;46079;-44
2022/05/20 05:03:16;;;;;;;;;4.25;3.00;;;;;20.93;49.29;101486.78;5106738;27;45453;-44
2022/05/20 05:05:41;;;;;;;;;2.50;2.50;;;;;20.92;49.26;101487.84;5108936;27;45338;-45
2022/05/20 05:08:07;;;;;;;;;3.00;3.00;;;;;20.88;49.20;101483.84;5107934;27;45336;-45
2022/05/20 05:10:32;;;;;;;;;3.50;2.75;;;;;20.92;49.75;101495.94;5107255;27;45430;-44
2022/05/20 05:12:58;;;;;;;;;3.00;3.00;;;;;20.92;49.20;101495.94;5108644;27;45304;-45
2022/05/20 05:15:23;;;;;;;;;5.50;4.25;;;;;20.91;49.92;101487.00;5107255;27;45351;-44
2022/05/20 05:20:33;;;;;;;;;3.75;3.25;;;;;20.88;49.80;101486.56;5098698;27;45373;-42
2022/05/20 05:23:00;;;;;;;;;2.25;2.00;;;;;20.84;49.80;101477.16;5106577;27;45322;-43
2022/05/20 05:25:27;;;;;;;;;4.00;2.00;;;;;20.86;49.55;101481.34;5107900;27;45458;-44
2022/05/20 05:27:53;;;;;;;;;4.25;3.00;;;;;20.85;49.62;101473.41;5088554;27;45434;-45
2022/05/20 05:30:20;;;;;;;;;7.50;3.75;;;;;20.83;50.12;101478.19;5106160;27;45390;-44
2022/05/20 05:32:45;;;;;;;;;5.00;4.00;;;;;20.88;50.29;101475.75;5106660;27;45276;-44
2022/05/20 05:35:20;;;;;;;;;2.75;2.75;;;;;20.88;49.78;101471.16;5107296;27;45623;-46
2022/05/20 05:37:46;;;;;;;;;3.00;3.00;;;;;20.84;50.30;101471.75;5101138;27;45445;-45
2022/05/20 05:40:15;;;;;;;;;3.00;2.00;;;;;20.79;50.20;101472.34;5107758;27;46041;-45
2022/05/20 05:42:41;;;;;;;;;2.25;2.25;;;;;20.74;50.05;101463.16;5103192;27;45442;-43
2022/05/20 05:45:08;;;;;;;;;5.75;3.75;;;;;20.67;50.55;101463.09;5107582;27;45242;-45
2022/05/20 05:47:33;;;;;;;;;3.25;3.25;;;;;20.64;50.11;101447.25;5107949;27;45459;-44
2022/05/20 05:49:59;;;;;;;;;5.00;5.00;;;;;20.61;51.01;101443.09;5105564;27;46064;-43
2022/05/20 05:52:24;;;;;;;;;4.75;3.75;;;;;20.58;51.16;101421.84;5107484;27;45221;-46
2022/05/20 05:54:49;;;;;;;;;6.00;4.75;;;;;20.60;51.09;101413.53;5107260;27;45452;-43
2022/05/20 05:57:15;;;;;;;;;3.75;3.75;;;;;20.55;50.53;101427.63;5106231;27;45217;-44
2022/05/20 05:59:41;;;;;;;;;3.25;3.25;;;;;20.56;51.43;101444.69;5107597;27;45987;-44
2022/05/20 06:02:08;;;;;;;;;3.00;3.00;;;;;20.55;51.18;101459.25;5106372;27;45487;-45
2022/05/20 06:04:34;;;;;;;;;3.75;3.75;;;;;20.48;52.56;101461.00;5106228;27;45404;-44
2022/05/20 06:07:00;;;;;;;;;5.50;4.25;;;;;20.46;51.73;101473.91;5108041;27;45460;-44
2022/05/20 06:09:25;;;;;;;;;6.25;3.00;;;;;20.42;51.29;101481.56;5106462;27;46151;-44
2022/05/20 06:11:50;;;;;;;;;9.00;6.00;;;;;20.34;52.89;101485.22;5106145;27;45458;-43
2022/05/20 06:14:16;;;;;;;;;6.00;4.50;;;;;20.25;53.75;101482.84;5107607;27;45308;-44
2022/05/20 06:16:42;;;;;;;;;6.00;4.50;;;;;20.23;54.76;101490.31;5105863;27;45230;-43
2022/05/20 06:19:08;;;;;;;;;4.00;4.00;;;;;20.13;55.97;101487.91;5106455;27;46114;-44
2022/05/20 06:21:34;;;;;;;;;7.25;5.75;;;;;20.00;53.94;101479.66;5107328;27;45322;-45
2022/05/20 06:24:01;;;;;;;;;5.00;4.00;;;;;20.00;57.53;101485.06;5105450;27;45552;-44
2022/05/20 06:26:28;;;;;;;;;4.00;4.00;;;;;19.94;57.97;101451.56;5107012;27;45467;-44
2022/05/20 06:28:54;;;;;;;;;4.75;4.75;;;;;19.93;56.37;101439.06;5107109;27;46221;-45
2022/05/20 06:31:19;;;;;;;;;3.75;3.75;;;;;19.88;55.58;101403.72;5104939;27;45462;-44
2022/05/20 06:33:45;;;;;;;;;4.25;3.75;;;;;19.68;58.14;101363.88;5104309;27;45356;-45
2022/05/20 06:41:38;;;;;;;;;5.50;5.50;;;;;19.55;59.71;101370.94;5103100;27;45331;-44
2022/05/20 06:44:04;;;;;;;;;6.00;5.25;;;;;19.44;59.94;101346.13;5109726;27;45350;-44
2022/05/20 06:46:30;;;;;;;;;9.00;6.00;;;;;19.43;61.41;101357.13;5110338;27;45494;-45
2022/05/20 06:48:56;;;;;;;;;5.75;5.75;;;;;19.37;60.86;101380.28;5111001;27;45392;-45
2022/05/20 06:51:24;;;;;;;;;6.00;6.00;;;;;19.41;60.80;101386.13;5097986;27;45368;-46
2022/05/20 06:53:55;;;;;;;;;6.75;5.00;;;;;19.45;61.35;101374.78;5103923;27;45440;-45
2022/05/20 06:56:22;;;;;;;;;6.00;5.00;;;;;19.45;61.85;101325.38;5092365;27;45494;-49
2022/05/20 06:58:48;;;;;;;;;7.00;5.75;;;;;19.54;60.76;101291.84;5086086;27;46355;-47
2022/05/20 07:01:15;;;;;;;;;9.25;6.50;;;;;19.54;60.30;101272.94;5087253;27;45514;-44
2022/05/20 07:03:41;;;;;;;;;5.75;4.75;;;;;19.45;59.24;101223.66;5090642;27;45438;-46
2022/05/20 07:06:08;;;;;;;;;5.50;5.50;;;;;19.60;60.59;101233.56;5078183;27;45526;-45
2022/05/20 07:08:34;;;;;;;;;7.00;6.00;;;;;19.63;61.48;101227.78;5078573;27;46349;-47
2022/05/20 07:11:01;;;;;;;;;8.00;6.00;;;;;19.65;61.33;101215.78;5089774;27;45424;-53
2022/05/20 07:13:30;;;;;;;;;6.50;4.75;;;;;19.73;60.20;101193.22;5091551;27;45514;-51
2022/05/20 07:15:57;;;;;;;;;7.00;5.75;;;;;19.87;60.60;101188.75;5092398;27;45395;-52
2022/05/20 07:18:26;;;;;;;;;7.25;5.25;;;;;19.96;61.03;101192.97;5089301;27;46003;-50
2022/05/20 07:20:52;;;;;;;;;5.00;5.00;;;;;20.15;60.02;101202.25;5089244;27;45420;-48
2022/05/20 07:23:17;;;;;;;;;7.75;6.00;;;;;20.41;59.86;101199.69;5089839;27;45449;-55
2022/05/20 07:25:43;;;;;;;;;7.00;5.50;;;;;20.71;59.79;101221.06;5092074;27;45515;-55
2022/05/20 07:28:09;;;;;;;;;7.00;7.00;;;;;20.76;59.19;101252.88;5090454;27;46885;-48
2022/05/20 07:30:35;;;;;;;;;8.50;6.25;;;;;20.56;59.42;101229.31;5092023;27;45447;-55
2022/05/20 07:33:01;;;;;;;;;7.50;6.00;;;;;20.65;59.64;101232.69;5087678;27;45958;-54
2022/05/20 07:35:26;;;;;;;;;8.50;5.75;;;;;20.71;59.38;101221.06;5086049;27;45673;-50
2022/05/20 07:37:51;;;;;;;;;8.75;7.25;;;;;20.97;60.26;101231.13;5087216;27;46017;-48
2022/05/20 07:40:19;;;;;;;;;10.00;7.00;;;;;21.31;59.50;101251.81;5086732;27;45884;-47
2022/05/20 07:42:44;;;;;;;;;7.25;6.25;;;;;21.35;59.69;101260.38;5086211;27;45594;-53
2022/05/20 07:45:10;;;;;;;;;9.25;7.75;;;;;21.33;59.67;101259.78;5088551;27;45453;-46
2022/05/20 07:47:35;;;;;;;;;12.75;8.75;;;;;21.32;60.32;101298.69;5088312;27;46964;-49
2022/05/20 07:50:01;;;;;;;;;14.25;10.00;;;;;21.22;60.94;101319.84;5091710;27;46336;-53
2022/05/20 07:55:10;;;;;;;;;10.50;10.00;;;;;21.12;60.60;101342.72;5087878;27;45516;-52
2022/05/20 07:57:39;;;;;;;;;10.75;9.50;;;;;21.08;61.44;101405.53;5089845;27;46173;-52
2022/05/20 08:00:06;;;;;;;;;7.50;7.50;;;;;21.07;62.30;101376.81;5086335;27;45506;-53
2022/05/20 08:02:32;;;;;;;;;8.50;7.25;;;;;21.09;61.57;101340.41;5089206;27;45598;-56
2022/05/20 08:05:01;;;;;;;;;11.00;10.00;;;;;21.04;63.15;101307.72;5090097;27;45401;-51
2022/05/20 08:07:42;;;;;;;;;14.75;11.00;;;;;21.05;62.54;101319.38;5088224;27;45526;-57
2022/05/20 08:10:11;;;;;;;;;9.00;9.00;;;;;21.19;63.08;101315.69;5088683;27;45656;-50
2022/05/20 08:12:37;;;;;;;;;14.75;12.00;;;;;21.38;63.45;101314.94;5089915;27;45481;-54
2022/05/20 08:15:03;;;;;;;;;13.00;10.25;;;;;21.42;63.84;101297.25;5086887;27;45448;-50
2022/05/20 08:17:29;;;;;;;;;11.00;11.00;;;;;21.42;64.06;101286.44;5090673;27;47198;-55
2022/05/20 08:19:56;;;;;;;;;19.25;16.75;;;;;21.47;61.09;101295.81;5089607;27;45408;-56
2022/05/20 08:22:22;;;;;;;;;11.25;9.50;;;;;21.53;62.02;101303.97;5089478;27;45562;-55
2022/05/20 08:24:53;;;;;;;;;17.25;13.25;;;;;21.55;61.56;101310.00;5091336;27;45466;-49
2022/05/20 08:27:22;;;;;;;;;12.00;10.25;;;;;21.61;62.02;101278.53;5089070;27;46426;-53
2022/05/20 08:29:48;;;;;;;;;12.50;10.75;;;;;21.58;62.09;101265.44;5087410;27;45508;-56
2022/05/20 08:32:15;;;;;;;;;11.25;9.50;;;;;21.58;63.45;101281.69;5086351;27;45392;-54
2022/05/20 08:34:46;;;;;;;;;9.00;8.25;;;;;21.73;63.19;101301.25;5085396;27;45550;-53
2022/05/20 08:37:13;;;;;;;;;15.75;13.75;;;;;21.84;62.07;101306.06;5089515;27;47474;-54
2022/05/20 08:39:39;;;;;;;;;12.50;11.50;;;;;21.92;63.23;101297.75;5077209;27;45502;-47
2022/05/20 08:42:10;;;;;;;;;11.00;10.50;;;;;21.91;61.61;101325.88;5079286;27;45486;-55
2022/05/20 08:44:36;;;;;;;;;11.75;10.00;;;;;21.85;61.22;101388.16;5077703;27;45530;-53
2022/05/20 08:47:12;;;;;;;;;9.00;9.00;;;;;21.76;61.68;101405.66;5074738;27;46913;-50
2022/05/20 08:49:38;;;;;;;;;17.00;13.25;;;;;21.63;62.20;101436.22;5067852;27;45504;-55
2022/05/20 08:52:04;;;;;;;;;15.00;12.00;;;;;21.57;62.35;101483.88;5077830;27;45499;-53
2022/05/20 08:54:29;;;;;;;;;14.25;12.50;;;;;21.46;63.12;101416.78;5073620;27;45463;-50
2022/05/20 08:56:55;;;;;;;;;16.50;13.25;;;;;21.48;63.88;101308.31;5075674;27;47030;-55
2022/05/20 08:59:22;;;;;;;;;15.50;15.00;;;;;21.70;64.79;101322.50;5081338;27;45554;-47
2022/05/20 09:01:50;;;;;;;;;15.75;13.25;;;;;22.18;64.37;101315.06;5085434;27;45357;-51
2022/05/20 09:04:24;;;;;;;;;16.75;13.25;;;;;23.10;62.32;101324.91;5089578;27;45563;-55
2022/05/20 09:07:01;;;;;;;;;13.75;13.00;;;;;23.54;60.35;101325.06;5084476;27;46227;-51
2022/05/20 09:09:39;;;;;;;;;14.50;13.00;;;;;23.92;59.34;101330.50;5088569;27;45502;-53
2022/05/20 09:12:06;;;;;;;;;16.50;14.75;;;;;24.30;59.04;101316.78;5085787;27;45504;-52
2022/05/20 09:17:23;;;;;;;;;18.50;13.50;;;;;24.61;56.80;101305.00;5086552;27;45700;-44
2022/05/20 09:20:02;;;;;;;;;15.50;13.75;;;;;24.77;57.03;101302.72;5085260;27;46303;-46
2022/05/20 09:22:30;;;;;;;;;16.75;15.00;;;;;25.30;55.64;101307.53;5083688;27;45505;-52
2022/05/20 09:24:57;;;;;;;;;21.50;16.75;;;;;25.66;55.11;101311.19;5087654;27;45398;-50
2022/05/20 09:27:29;;;;;;;;;17.75;14.50;;;;;25.85;54.64;101282.84;5083495;27;46064;-54
2022/05/20 09:29:59;;;;;;;;;16.00;15.00;;;;;25.88;54.10;101268.75;5084615;27;45855;-52
2022/05/20 09:32:40;;;;;;;;;17.25;15.00;;;;;25.69;53.57;101239.91;5083172;27;45549;-51
2022/05/20 09:35:22;;;;;;;;;17.75;15.75;;;;;25.61;53.66;101262.84;5089700;27;45391;-47
2022/05/20 09:37:51;;;;;;;;;13.20;12.60;;;;;25.38;54.71;101279.97;5085926;27;45535;-50
2022/05/20 09:40:38;;;;;;;;;14.60;12.80;;;;;25.01;54.63;101378.03;5074278;27;45372;-54
2022/05/20 09:43:27;;;;;;;;;13.75;12.75;;;;;24.57;56.38;101468.91;5083806;27;45536;-55
2022/05/20 09:45:54;;;;;;;;;19.75;17.00;;;;;24.05;57.98;101436.38;5091584;27;45454;-51
2022/05/20 09:48:25;;;;;;;;;24.50;20.50;;;;;23.88;58.90;101357.25;5091587;27;47404;-51
2022/05/20 09:51:05;;;;;;;;;23.00;20.00;;;;;23.81;58.14;101149.19;5091309;27;45474;-48
2022/05/20 09:53:35;;;;;;;;;25.25;20.75;;;;;24.26;58.21;101133.41;5086375;27;45469;-56
2022/05/20 09:56:19;;;;;;;;;23.00;20.75;;;;;25.31;56.67;101208.44;5094339;27;45662;-51
2022/05/20 09:59:13;;;;;;;;;21.25;20.25;;;;;26.35;53.48;101246.94;5084934;27;46497;-51
2022/05/20 10:01:44;;;;;;;;;20.75;17.50;;;;;27.34;51.67;101238.56;5093604;27;45460;-49
2022/05/20 10:04:15;;;;;;;;;20.00;19.50;;;;;28.42;49.33;101214.59;5086873;27;46395;-54
2022/05/20 10:06:48;;;;;;;;;26.00;23.75;;;;;28.56;49.24;101204.09;5044122;27;45658;-46
2022/05/20 10:09:25;;;;;;;;;27.25;21.50;;;;;28.18;49.59;101213.13;5087656;27;45980;-53
2022/05/20 10:12:01;;;;;;;;;22.00;20.00;;;;;27.63;50.22;101222.94;5088164;27;45467;-56
2022/05/20 10:14:37;;;;;;;;;27.40;19.80;;;;;27.01;51.43;101215.56;5092350;27;45519;-51
2022/05/20 10:17:09;;;;;;;;;23.75;20.25;;;;;26.57;51.80;101228.06;5090996;27;45480;-55
2022/05/20 10:19:48;;;;;;;;;33.50;25.25;;;;;25.94;53.01;101213.28;5091325;27;45489;-55
2022/05/20 10:22:41;;;;;;;;;27.00;26.40;;;;;25.43;54.54;101217.47;5091843;27;45872;-54
2022/05/20 10:25:21;;;;;;;;;31.25;23.25;;;;;24.97;55.55;101232.56;5090357;27;45483;-46
2022/05/20 10:27:58;;;;;;;;;28.00;20.00;;;;;24.70;56.56;101239.41;5092275;27;45461;-53
2022/05/20 10:33:24;;;;;;;;;29.50;24.75;;;;;24.51;57.07;101255.72;5085630;27;45401;-48
2022/05/20 10:36:15;;;;;;;;;26.75;22.00;;;;;24.41;58.15;101251.88;5089788;27;45632;-48
2022/05/20 10:38:59;;;;;;;;;27.25;26.50;;;;;24.32;59.28;101232.28;5093287;27;45572;-53
2022/05/20 10:41:30;;;;;;;;;32.75;27.00;;;;;24.43;59.69;101228.81;5092449;27;46433;-51
2022/05/20 10:50:32;;;;;;;;;38.25;30.00;;;;;26.20;54.66;101206.50;5090312;27;45478;-55
2022/05/20 10:53:22;;;;;;;;;38.50;32.00;;;;;27.25;52.16;101183.50;5092255;27;46188;-47
2022/05/20 10:56:25;;;;;;;;;37.25;33.50;;;;;27.70;50.42;101168.13;5086242;27;45560;-48
2022/05/20 10:59:11;;;;;;;;;38.75;31.25;;;;;28.73;48.25;101166.50;5086522;27;45856;-50
2022/05/20 11:01:58;;;;;;;;;31.25;28.50;;;;;29.07;48.19;101194.53;5086140;27;45627;-46
2022/05/20 11:04:46;;;;;;;;;29.25;25.50;;;;;29.74;46.89;101208.84;5090476;27;47196;-49
2022/05/20 11:07:53;;;;;;;;;31.00;28.40;;;;;29.31;47.73;101219.69;5081942;27;45734;-51
2022/05/20 11:10:39;;;;;;;;;29.40;25.60;;;;;29.44;47.02;101218.44;5088883;27;45175;-53
2022/05/20 11:13:30;;;;;;;;;31.50;25.75;;;;;29.60;45.87;101227.66;5086708;27;45515;-51
2022/05/20 11:16:07;;;;;;;;;33.75;26.25;;;;;29.90;46.39;101232.53;5083611;27;47027;-44
2022/05/20 11:18:47;;;;;;;;;23.80;22.20;;;;;30.10;44.79;101245.56;5090511;27;45483;-50
2022/05/20 11:21:45;;;;;;;;;30.20;26.40;;;;;30.16;45.91;101257.44;5089057;27;45475;-49
2022/05/20 11:24:39;;;;;;;;;29.50;26.00;;;;;29.80;46.04;101262.66;5073347;27;45410;-51
2022/05/20 11:27:45;;;;;;;;;29.80;29.00;;;;;29.32;46.58;101272.59;5090920;27;46178;-52
2022/05/20 11:30:47;;;;;;;;;25.00;24.60;;;;;28.86;47.84;101280.28;5091243;27;46544;-48
2022/05/20 11:33:34;;;;;;;;;30.00;26.60;;;;;28.52;48.98;101283.13;5092203;27;45542;-52
2022/05/20 11:36:25;;;;;;;;;27.00;25.80;;;;;28.37;49.15;101280.19;5089707;27;45495;-48
2022/05/20 11:39:28;;;;;;;;;26.20;22.00;;;;;28.56;49.21;101267.84;5091802;27;45597;-48
2022/05/20 11:42:14;;;;;;;;;20.60;19.00;;;;;29.04;48.21;101260.81;5092632;27;45502;-52
2022/05/20 11:44:45;;;;;;;;;21.40;20.00;;;;;29.44;47.31;101270.53;5091470;27;45899;-47
2022/05/20 11:47:32;;;;;;;;;18.60;17.40;;;;;29.80;46.96;101273.63;5085993;27;45678;-49
2022/05/20 11:50:10;;;;;;;;;22.00;19.00;;;;;30.08;46.50;101259.53;5090561;27;46124;-51
2022/05/20 11:52:57;;;;;;;;;24.80;19.20;;;;;30.15;46.55;101258.53;5087055;27;45427;-53
2022/05/20 11:55:36;;;;;;;;;23.00;19.60;;;;;30.17;47.11;101245.34;5088621;27;45467;-51
2022/05/20 11:58:06;;;;;;;;;22.00;20.20;;;;;30.00;47.09;101235.38;5085035;27;45650;-52
2022/05/20 12:00:35;;;;;;;;;13.80;13.20;;;;;29.89;46.13;101225.41;5088658;27;47103;-52
2022/05/20 12:03:07;;;;;;;;;18.00;16.00;;;;;29.55;45.41;101222.13;5087979;27;45439;-48
2022/05/20 12:05:37;;;;;;;;;14.60;13.00;;;;;29.21;44.92;101225.09;5089625;27;45533;-46
2022/05/20 12:08:03;;;;;;;;;15.20;13.40;;;;;29.16;45.68;101216.84;5086513;27;45437;-51
2022/05/20 12:10:31;;;;;;;;;12.75;12.75;;;;;29.21;45.15;101213.31;5090457;27;46842;-44
2022/05/20 12:13:29;;;;;;;;;14.40;12.60;;;;;29.29;44.68;101226.56;5088981;27;45931;-48